Etusivu
METAR-TAF:

METAR-TAF

Lentoasemat :

Nouakchott, Mauritania

Nouakchottin kansainvälinen lentoasema

Leveyspiiri: 18-18-36N, Pituuspiiri: 015-58-11W, korkeus merenpinnasta: 3 m

Tämänhetkinen sää

Tämä raportti tehtiin 47 minuuttia sitten, kello 00.00 UTC
Tuuli 16 kn pohjoisesta
Lämpötila 29°C
Kosteus 31%
Ilmanpaine 1010 hPa
Näkyvyys: 8000 m

METAR: GQNO 300000Z 35016KT 8000 NSC 29/10 Q1010 NOSIG

Aika: 00:47 (00:47 UTC)

Sääennuste

Tämä raportti tehtiin 7 tuntia ja 47 minuuttia sitten, kello 17.00 UTC
Ennuste voimassa 29. päivästä klo 18 UTC - 30. päivään klo 24 UTC
Tuuli 14 kn pohjoisen/luoteesta
Näkyvyys: 7000 m
Ajoittain
30. päivästä klo 09 UTC - 30. päivään klo 15 UTC
Tuuli 14 kn idästä
Näkyvyys: 4000 m
hiekkatuisku

TAF: GQNO 291700Z 2918/3024 33014KT 7000 NSC TEMPO 3009/3015 08014KT 4000 BLSA

Säähavainnot ja -ennusteet yli 4000 lentoasemalta (METAR- ja TAF-raportit).

Käytössä olevat sääasemat on merkitty karttaan keltaisilla ja punaisilla pisteillä.

Aseta hiiri pisteen päälle nähdäksesi sääaseman nimen.

Klikkaa sitten nähdäksesi säähavainnot ja -ennusteet.

Kartan vaihtaminen: klikkaa mustalla rastilla varustettuja vihreitä pisteitä, niin voit zoomata sisään; viivalla varustettua vihreää pistettä, niin voit zoomata ulos tai vihreitä nuolia, niin pääset viereisille kartoille.


METAR-TAF: